sensor_id;sensor_type;location;lat;lon;timestamp;P1;durP1;ratioP1;P2;durP2;ratioP2
14181;SDS011;7171;50.936;6.764;2022-07-29T00:01:16;2.03;;;0.90;;
14181;SDS011;7171;50.936;6.764;2022-07-29T00:03:43;1.10;;;0.80;;
14181;SDS011;7171;50.936;6.764;2022-07-29T00:06:10;1.13;;;1.00;;
14181;SDS011;7171;50.936;6.764;2022-07-29T00:08:37;2.00;;;1.08;;
14181;SDS011;7171;50.936;6.764;2022-07-29T00:11:04;1.13;;;0.90;;
14181;SDS011;7171;50.936;6.764;2022-07-29T00:13:31;0.77;;;0.77;;
14181;SDS011;7171;50.936;6.764;2022-07-29T00:15:59;1.00;;;0.80;;
14181;SDS011;7171;50.936;6.764;2022-07-29T00:18:26;1.25;;;1.15;;
14181;SDS011;7171;50.936;6.764;2022-07-29T00:20:53;1.05;;;0.82;;
14181;SDS011;7171;50.936;6.764;2022-07-29T00:23:20;1.38;;;0.98;;
14181;SDS011;7171;50.936;6.764;2022-07-29T00:25:46;0.93;;;0.77;;
14181;SDS011;7171;50.936;6.764;2022-07-29T00:28:13;0.95;;;0.93;;
14181;SDS011;7171;50.936;6.764;2022-07-29T00:30:40;1.25;;;1.00;;
14181;SDS011;7171;50.936;6.764;2022-07-29T00:33:09;1.63;;;1.17;;
14181;SDS011;7171;50.936;6.764;2022-07-29T00:35:36;1.20;;;0.88;;
14181;SDS011;7171;50.936;6.764;2022-07-29T00:38:11;0.90;;;0.82;;
14181;SDS011;7171;50.936;6.764;2022-07-29T00:40:39;1.13;;;1.10;;
14181;SDS011;7171;50.936;6.764;2022-07-29T00:43:06;2.35;;;1.17;;
14181;SDS011;7171;50.936;6.764;2022-07-29T00:45:33;1.15;;;1.00;;
14181;SDS011;7171;50.936;6.764;2022-07-29T00:48:00;1.25;;;1.10;;
14181;SDS011;7171;50.936;6.764;2022-07-29T00:50:29;1.83;;;1.15;;
14181;SDS011;7171;50.936;6.764;2022-07-29T00:52:57;2.15;;;1.08;;
14181;SDS011;7171;50.936;6.764;2022-07-29T00:55:24;1.30;;;1.00;;
14181;SDS011;7171;50.936;6.764;2022-07-29T00:57:51;1.05;;;1.00;;
14181;SDS011;7171;50.936;6.764;2022-07-29T01:00:20;0.77;;;0.77;;
14181;SDS011;7171;50.936;6.764;2022-07-29T01:02:48;1.45;;;0.90;;
14181;SDS011;7171;50.936;6.764;2022-07-29T01:05:16;1.30;;;0.90;;
14181;SDS011;7171;50.936;6.764;2022-07-29T01:07:46;3.63;;;1.20;;
14181;SDS011;7171;50.936;6.764;2022-07-29T01:10:15;0.80;;;0.80;;
14181;SDS011;7171;50.936;6.764;2022-07-29T01:12:44;1.08;;;0.90;;
14181;SDS011;7171;50.936;6.764;2022-07-29T01:15:15;0.60;;;0.60;;
14181;SDS011;7171;50.936;6.764;2022-07-29T01:17:43;0.80;;;0.80;;
14181;SDS011;7171;50.936;6.764;2022-07-29T01:20:17;1.10;;;0.90;;
14181;SDS011;7171;50.936;6.764;2022-07-29T01:22:57;1.10;;;1.00;;
14181;SDS011;7171;50.936;6.764;2022-07-29T01:25:42;1.17;;;1.08;;
14181;SDS011;7171;50.936;6.764;2022-07-29T01:28:21;0.77;;;0.73;;
14181;SDS011;7171;50.936;6.764;2022-07-29T01:31:19;3.60;;;1.17;;
14181;SDS011;7171;50.936;6.764;2022-07-29T01:33:52;1.35;;;1.00;;
14181;SDS011;7171;50.936;6.764;2022-07-29T01:36:32;1.38;;;0.90;;
14181;SDS011;7171;50.936;6.764;2022-07-29T01:39:04;1.48;;;1.13;;
14181;SDS011;7171;50.936;6.764;2022-07-29T01:41:35;1.20;;;1.10;;
14181;SDS011;7171;50.936;6.764;2022-07-29T01:44:08;1.35;;;1.20;;
14181;SDS011;7171;50.936;6.764;2022-07-29T01:46:41;2.30;;;1.05;;
14181;SDS011;7171;50.936;6.764;2022-07-29T01:49:15;1.05;;;0.80;;
14181;SDS011;7171;50.936;6.764;2022-07-29T01:51:47;0.82;;;0.77;;
14181;SDS011;7171;50.936;6.764;2022-07-29T01:54:18;1.25;;;1.00;;
14181;SDS011;7171;50.936;6.764;2022-07-29T01:56:51;2.53;;;0.90;;
14181;SDS011;7171;50.936;6.764;2022-07-29T01:59:22;1.30;;;1.15;;
14181;SDS011;7171;50.936;6.764;2022-07-29T02:01:52;0.82;;;0.82;;
14181;SDS011;7171;50.936;6.764;2022-07-29T02:04:20;1.15;;;0.90;;
14181;SDS011;7171;50.936;6.764;2022-07-29T02:06:49;0.80;;;0.80;;
14181;SDS011;7171;50.936;6.764;2022-07-29T02:09:18;0.70;;;0.70;;
14181;SDS011;7171;50.936;6.764;2022-07-29T02:11:47;2.00;;;1.23;;
14181;SDS011;7171;50.936;6.764;2022-07-29T02:14:19;1.48;;;1.13;;
14181;SDS011;7171;50.936;6.764;2022-07-29T02:16:47;0.90;;;0.82;;
14181;SDS011;7171;50.936;6.764;2022-07-29T02:19:19;1.38;;;1.00;;
14181;SDS011;7171;50.936;6.764;2022-07-29T02:21:50;1.33;;;1.02;;
14181;SDS011;7171;50.936;6.764;2022-07-29T02:24:19;0.95;;;0.85;;
14181;SDS011;7171;50.936;6.764;2022-07-29T02:26:48;1.25;;;1.15;;
14181;SDS011;7171;50.936;6.764;2022-07-29T02:29:17;1.00;;;0.90;;
14181;SDS011;7171;50.936;6.764;2022-07-29T02:31:47;2.67;;;1.08;;
14181;SDS011;7171;50.936;6.764;2022-07-29T02:34:16;1.55;;;1.42;;
14181;SDS011;7171;50.936;6.764;2022-07-29T02:36:46;1.75;;;1.08;;
14181;SDS011;7171;50.936;6.764;2022-07-29T02:39:14;1.80;;;1.23;;
14181;SDS011;7171;50.936;6.764;2022-07-29T02:41:43;1.10;;;1.00;;
14181;SDS011;7171;50.936;6.764;2022-07-29T02:44:14;2.63;;;0.93;;
14181;SDS011;7171;50.936;6.764;2022-07-29T02:46:43;0.98;;;0.88;;
14181;SDS011;7171;50.936;6.764;2022-07-29T02:49:15;0.90;;;0.80;;
14181;SDS011;7171;50.936;6.764;2022-07-29T02:51:51;1.88;;;1.30;;
14181;SDS011;7171;50.936;6.764;2022-07-29T02:54:25;2.33;;;1.20;;
14181;SDS011;7171;50.936;6.764;2022-07-29T02:56:57;1.30;;;1.20;;
14181;SDS011;7171;50.936;6.764;2022-07-29T02:59:27;1.35;;;1.00;;
14181;SDS011;7171;50.936;6.764;2022-07-29T03:01:57;1.23;;;1.08;;
14181;SDS011;7171;50.936;6.764;2022-07-29T03:04:27;0.73;;;0.65;;
14181;SDS011;7171;50.936;6.764;2022-07-29T03:06:58;1.83;;;1.10;;
14181;SDS011;7171;50.936;6.764;2022-07-29T03:09:26;1.10;;;1.00;;
14181;SDS011;7171;50.936;6.764;2022-07-29T03:11:54;1.33;;;1.00;;
14181;SDS011;7171;50.936;6.764;2022-07-29T03:14:22;1.92;;;1.00;;
14181;SDS011;7171;50.936;6.764;2022-07-29T03:16:50;1.42;;;1.10;;
14181;SDS011;7171;50.936;6.764;2022-07-29T03:19:18;1.90;;;1.25;;
14181;SDS011;7171;50.936;6.764;2022-07-29T03:21:48;1.98;;;1.02;;
14181;SDS011;7171;50.936;6.764;2022-07-29T03:24:24;1.10;;;1.00;;
14181;SDS011;7171;50.936;6.764;2022-07-29T03:26:55;1.73;;;1.42;;
14181;SDS011;7171;50.936;6.764;2022-07-29T03:29:22;1.50;;;1.23;;
14181;SDS011;7171;50.936;6.764;2022-07-29T03:31:50;2.15;;;1.27;;
14181;SDS011;7171;50.936;6.764;2022-07-29T03:34:17;2.55;;;1.15;;
14181;SDS011;7171;50.936;6.764;2022-07-29T03:36:44;1.45;;;1.02;;
14181;SDS011;7171;50.936;6.764;2022-07-29T03:39:13;1.48;;;1.20;;
14181;SDS011;7171;50.936;6.764;2022-07-29T03:41:42;1.35;;;1.00;;
14181;SDS011;7171;50.936;6.764;2022-07-29T03:44:12;1.17;;;1.08;;
14181;SDS011;7171;50.936;6.764;2022-07-29T03:46:41;1.13;;;1.02;;
14181;SDS011;7171;50.936;6.764;2022-07-29T03:49:09;2.67;;;1.02;;
14181;SDS011;7171;50.936;6.764;2022-07-29T03:51:37;1.10;;;1.00;;
14181;SDS011;7171;50.936;6.764;2022-07-29T03:54:05;1.92;;;1.10;;
14181;SDS011;7171;50.936;6.764;2022-07-29T03:56:34;1.20;;;1.10;;
14181;SDS011;7171;50.936;6.764;2022-07-29T03:59:05;1.10;;;1.00;;
14181;SDS011;7171;50.936;6.764;2022-07-29T04:01:33;0.93;;;0.90;;
14181;SDS011;7171;50.936;6.764;2022-07-29T04:04:01;2.10;;;1.38;;
14181;SDS011;7171;50.936;6.764;2022-07-29T04:06:28;1.02;;;0.95;;
14181;SDS011;7171;50.936;6.764;2022-07-29T04:09:03;2.60;;;1.10;;
14181;SDS011;7171;50.936;6.764;2022-07-29T04:11:29;1.77;;;1.08;;
14181;SDS011;7171;50.936;6.764;2022-07-29T04:13:58;1.77;;;1.02;;
14181;SDS011;7171;50.936;6.764;2022-07-29T04:16:24;0.85;;;0.85;;
14181;SDS011;7171;50.936;6.764;2022-07-29T04:18:51;1.10;;;1.00;;
14181;SDS011;7171;50.936;6.764;2022-07-29T04:21:18;0.95;;;0.95;;
14181;SDS011;7171;50.936;6.764;2022-07-29T04:23:45;2.22;;;1.30;;
14181;SDS011;7171;50.936;6.764;2022-07-29T04:26:14;1.20;;;1.10;;
14181;SDS011;7171;50.936;6.764;2022-07-29T04:28:41;1.20;;;0.80;;
14181;SDS011;7171;50.936;6.764;2022-07-29T04:31:09;1.25;;;1.15;;
14181;SDS011;7171;50.936;6.764;2022-07-29T04:33:36;1.70;;;1.25;;
14181;SDS011;7171;50.936;6.764;2022-07-29T04:36:03;2.67;;;1.30;;
14181;SDS011;7171;50.936;6.764;2022-07-29T04:38:30;1.30;;;1.13;;
14181;SDS011;7171;50.936;6.764;2022-07-29T04:40:57;1.98;;;1.10;;
14181;SDS011;7171;50.936;6.764;2022-07-29T04:43:24;0.90;;;0.90;;
14181;SDS011;7171;50.936;6.764;2022-07-29T04:45:51;0.80;;;0.80;;
14181;SDS011;7171;50.936;6.764;2022-07-29T04:48:19;1.67;;;1.25;;
14181;SDS011;7171;50.936;6.764;2022-07-29T04:50:46;0.98;;;0.90;;
14181;SDS011;7171;50.936;6.764;2022-07-29T04:53:13;1.92;;;1.30;;
14181;SDS011;7171;50.936;6.764;2022-07-29T04:55:39;1.45;;;1.35;;
14181;SDS011;7171;50.936;6.764;2022-07-29T04:58:06;0.90;;;0.90;;
14181;SDS011;7171;50.936;6.764;2022-07-29T05:00:33;1.27;;;1.17;;
14181;SDS011;7171;50.936;6.764;2022-07-29T05:03:00;2.38;;;1.38;;
14181;SDS011;7171;50.936;6.764;2022-07-29T05:05:28;1.15;;;1.05;;
14181;SDS011;7171;50.936;6.764;2022-07-29T05:07:55;0.93;;;0.93;;
14181;SDS011;7171;50.936;6.764;2022-07-29T05:10:22;1.25;;;1.15;;
14181;SDS011;7171;50.936;6.764;2022-07-29T05:12:49;1.83;;;1.10;;
14181;SDS011;7171;50.936;6.764;2022-07-29T05:15:17;1.30;;;1.10;;
14181;SDS011;7171;50.936;6.764;2022-07-29T05:17:44;1.65;;;1.38;;
14181;SDS011;7171;50.936;6.764;2022-07-29T05:20:11;1.30;;;1.10;;
14181;SDS011;7171;50.936;6.764;2022-07-29T05:22:39;1.05;;;0.98;;
14181;SDS011;7171;50.936;6.764;2022-07-29T05:25:06;1.20;;;1.10;;
14181;SDS011;7171;50.936;6.764;2022-07-29T05:27:34;1.42;;;1.30;;
14181;SDS011;7171;50.936;6.764;2022-07-29T05:30:01;2.67;;;1.27;;
14181;SDS011;7171;50.936;6.764;2022-07-29T05:32:28;1.30;;;1.20;;
14181;SDS011;7171;50.936;6.764;2022-07-29T05:34:55;1.70;;;1.40;;
14181;SDS011;7171;50.936;6.764;2022-07-29T05:37:22;1.15;;;1.02;;
14181;SDS011;7171;50.936;6.764;2022-07-29T05:39:51;2.35;;;1.40;;
14181;SDS011;7171;50.936;6.764;2022-07-29T05:42:17;2.78;;;1.60;;
14181;SDS011;7171;50.936;6.764;2022-07-29T05:44:44;2.78;;;1.50;;
14181;SDS011;7171;50.936;6.764;2022-07-29T05:47:12;1.30;;;1.20;;
14181;SDS011;7171;50.936;6.764;2022-07-29T05:49:39;1.48;;;1.10;;
14181;SDS011;7171;50.936;6.764;2022-07-29T05:52:06;1.67;;;1.58;;
14181;SDS011;7171;50.936;6.764;2022-07-29T05:54:34;1.33;;;1.05;;
14181;SDS011;7171;50.936;6.764;2022-07-29T05:57:02;2.38;;;1.23;;
14181;SDS011;7171;50.936;6.764;2022-07-29T05:59:29;1.77;;;1.33;;
14181;SDS011;7171;50.936;6.764;2022-07-29T06:01:56;3.17;;;1.30;;
14181;SDS011;7171;50.936;6.764;2022-07-29T06:04:23;1.88;;;1.35;;
14181;SDS011;7171;50.936;6.764;2022-07-29T06:06:50;1.38;;;1.27;;
14181;SDS011;7171;50.936;6.764;2022-07-29T06:09:16;1.42;;;1.33;;
14181;SDS011;7171;50.936;6.764;2022-07-29T06:11:43;1.63;;;1.25;;
14181;SDS011;7171;50.936;6.764;2022-07-29T06:14:12;0.95;;;0.93;;
14181;SDS011;7171;50.936;6.764;2022-07-29T06:16:39;1.02;;;0.90;;
14181;SDS011;7171;50.936;6.764;2022-07-29T06:19:05;1.30;;;1.20;;
14181;SDS011;7171;50.936;6.764;2022-07-29T06:21:32;1.25;;;1.00;;
14181;SDS011;7171;50.936;6.764;2022-07-29T06:23:59;1.73;;;1.13;;
14181;SDS011;7171;50.936;6.764;2022-07-29T06:26:26;2.78;;;1.50;;
14181;SDS011;7171;50.936;6.764;2022-07-29T06:28:53;1.73;;;1.10;;
14181;SDS011;7171;50.936;6.764;2022-07-29T06:31:22;1.10;;;1.00;;
14181;SDS011;7171;50.936;6.764;2022-07-29T06:33:48;2.03;;;1.30;;
14181;SDS011;7171;50.936;6.764;2022-07-29T06:36:15;1.50;;;1.40;;
14181;SDS011;7171;50.936;6.764;2022-07-29T06:38:42;1.48;;;1.38;;
14181;SDS011;7171;50.936;6.764;2022-07-29T06:41:09;1.92;;;1.30;;
14181;SDS011;7171;50.936;6.764;2022-07-29T06:43:38;1.33;;;1.20;;
14181;SDS011;7171;50.936;6.764;2022-07-29T06:46:06;2.22;;;1.80;;
14181;SDS011;7171;50.936;6.764;2022-07-29T06:48:36;1.95;;;1.35;;
14181;SDS011;7171;50.936;6.764;2022-07-29T06:51:03;1.60;;;1.42;;
14181;SDS011;7171;50.936;6.764;2022-07-29T06:53:31;2.75;;;1.58;;
14181;SDS011;7171;50.936;6.764;2022-07-29T06:55:59;1.67;;;1.50;;
14181;SDS011;7171;50.936;6.764;2022-07-29T06:58:27;2.00;;;1.40;;
14181;SDS011;7171;50.936;6.764;2022-07-29T07:00:55;1.30;;;1.20;;
14181;SDS011;7171;50.936;6.764;2022-07-29T07:03:23;1.58;;;1.48;;
14181;SDS011;7171;50.936;6.764;2022-07-29T07:05:53;2.28;;;1.45;;
14181;SDS011;7171;50.936;6.764;2022-07-29T07:08:20;3.65;;;1.77;;
14181;SDS011;7171;50.936;6.764;2022-07-29T07:10:48;1.83;;;1.45;;
14181;SDS011;7171;50.936;6.764;2022-07-29T07:13:15;2.08;;;1.42;;
14181;SDS011;7171;50.936;6.764;2022-07-29T07:15:43;1.40;;;1.30;;
14181;SDS011;7171;50.936;6.764;2022-07-29T07:18:12;1.48;;;1.38;;
14181;SDS011;7171;50.936;6.764;2022-07-29T07:20:40;3.28;;;1.42;;
14181;SDS011;7171;50.936;6.764;2022-07-29T07:23:09;1.50;;;1.40;;
14181;SDS011;7171;50.936;6.764;2022-07-29T07:25:35;1.80;;;1.67;;
14181;SDS011;7171;50.936;6.764;2022-07-29T07:28:02;1.40;;;1.30;;
14181;SDS011;7171;50.936;6.764;2022-07-29T07:30:29;1.50;;;1.40;;
14181;SDS011;7171;50.936;6.764;2022-07-29T07:32:57;1.45;;;1.35;;
14181;SDS011;7171;50.936;6.764;2022-07-29T07:35:23;2.50;;;1.65;;
14181;SDS011;7171;50.936;6.764;2022-07-29T07:37:52;1.77;;;1.65;;
14181;SDS011;7171;50.936;6.764;2022-07-29T07:40:21;2.05;;;1.58;;
14181;SDS011;7171;50.936;6.764;2022-07-29T07:42:47;1.20;;;1.10;;
14181;SDS011;7171;50.936;6.764;2022-07-29T07:45:14;1.70;;;1.55;;
14181;SDS011;7171;50.936;6.764;2022-07-29T07:47:42;1.65;;;1.40;;
14181;SDS011;7171;50.936;6.764;2022-07-29T07:50:10;1.40;;;1.30;;
14181;SDS011;7171;50.936;6.764;2022-07-29T07:52:45;1.58;;;1.45;;
14181;SDS011;7171;50.936;6.764;2022-07-29T07:55:13;2.15;;;1.30;;
14181;SDS011;7171;50.936;6.764;2022-07-29T07:57:42;4.97;;;1.55;;
14181;SDS011;7171;50.936;6.764;2022-07-29T08:00:09;2.08;;;1.65;;
14181;SDS011;7171;50.936;6.764;2022-07-29T08:02:37;1.88;;;1.50;;
14181;SDS011;7171;50.936;6.764;2022-07-29T08:05:05;1.55;;;1.40;;
14181;SDS011;7171;50.936;6.764;2022-07-29T08:07:32;2.28;;;1.45;;
14181;SDS011;7171;50.936;6.764;2022-07-29T08:09:59;2.65;;;1.48;;
14181;SDS011;7171;50.936;6.764;2022-07-29T08:12:26;1.60;;;1.40;;
14181;SDS011;7171;50.936;6.764;2022-07-29T08:14:54;4.53;;;1.50;;
14181;SDS011;7171;50.936;6.764;2022-07-29T08:17:21;1.75;;;1.55;;
14181;SDS011;7171;50.936;6.764;2022-07-29T08:19:48;2.17;;;1.70;;
14181;SDS011;7171;50.936;6.764;2022-07-29T08:22:14;2.10;;;1.67;;
14181;SDS011;7171;50.936;6.764;2022-07-29T08:24:41;1.60;;;1.50;;
14181;SDS011;7171;50.936;6.764;2022-07-29T08:27:17;3.13;;;1.42;;
14181;SDS011;7171;50.936;6.764;2022-07-29T08:29:44;2.13;;;1.63;;
14181;SDS011;7171;50.936;6.764;2022-07-29T08:32:12;2.35;;;1.58;;
14181;SDS011;7171;50.936;6.764;2022-07-29T08:34:39;1.90;;;1.70;;
14181;SDS011;7171;50.936;6.764;2022-07-29T08:37:06;1.60;;;1.50;;
14181;SDS011;7171;50.936;6.764;2022-07-29T08:39:32;2.05;;;1.75;;
14181;SDS011;7171;50.936;6.764;2022-07-29T08:41:59;2.78;;;1.75;;
14181;SDS011;7171;50.936;6.764;2022-07-29T08:44:26;2.72;;;1.83;;
14181;SDS011;7171;50.936;6.764;2022-07-29T08:46:53;1.77;;;1.67;;
14181;SDS011;7171;50.936;6.764;2022-07-29T08:49:21;2.08;;;1.88;;
14181;SDS011;7171;50.936;6.764;2022-07-29T08:51:48;1.88;;;1.73;;
14181;SDS011;7171;50.936;6.764;2022-07-29T08:54:16;1.38;;;1.27;;
14181;SDS011;7171;50.936;6.764;2022-07-29T08:56:43;2.25;;;1.65;;
14181;SDS011;7171;50.936;6.764;2022-07-29T08:59:14;3.03;;;2.15;;
14181;SDS011;7171;50.936;6.764;2022-07-29T09:01:41;1.80;;;1.67;;
14181;SDS011;7171;50.936;6.764;2022-07-29T09:04:10;2.65;;;1.73;;
14181;SDS011;7171;50.936;6.764;2022-07-29T09:06:41;4.10;;;1.98;;
14181;SDS011;7171;50.936;6.764;2022-07-29T09:09:10;2.53;;;2.22;;
14181;SDS011;7171;50.936;6.764;2022-07-29T09:11:38;1.88;;;1.52;;
14181;SDS011;7171;50.936;6.764;2022-07-29T09:14:06;1.95;;;1.60;;
14181;SDS011;7171;50.936;6.764;2022-07-29T09:16:43;1.95;;;1.35;;
14181;SDS011;7171;50.936;6.764;2022-07-29T09:19:25;1.33;;;1.23;;
14181;SDS011;7171;50.936;6.764;2022-07-29T09:21:55;1.40;;;1.30;;
14181;SDS011;7171;50.936;6.764;2022-07-29T09:27:19;2.53;;;1.60;;
14181;SDS011;7171;50.936;6.764;2022-07-29T09:29:47;2.15;;;1.40;;
14181;SDS011;7171;50.936;6.764;2022-07-29T09:32:22;1.30;;;1.20;;
14181;SDS011;7171;50.936;6.764;2022-07-29T09:34:49;2.05;;;1.58;;
14181;SDS011;7171;50.936;6.764;2022-07-29T09:37:26;2.58;;;1.52;;
14181;SDS011;7171;50.936;6.764;2022-07-29T09:39:53;2.90;;;1.85;;
14181;SDS011;7171;50.936;6.764;2022-07-29T09:42:27;2.00;;;1.60;;
14181;SDS011;7171;50.936;6.764;2022-07-29T09:44:57;2.72;;;1.42;;
14181;SDS011;7171;50.936;6.764;2022-07-29T09:47:25;2.20;;;1.70;;
14181;SDS011;7171;50.936;6.764;2022-07-29T09:50:07;1.85;;;1.75;;
14181;SDS011;7171;50.936;6.764;2022-07-29T09:52:44;2.60;;;1.67;;
14181;SDS011;7171;50.936;6.764;2022-07-29T09:55:12;2.40;;;1.80;;
14181;SDS011;7171;50.936;6.764;2022-07-29T09:57:40;2.15;;;1.70;;
14181;SDS011;7171;50.936;6.764;2022-07-29T10:00:07;2.10;;;1.80;;
14181;SDS011;7171;50.936;6.764;2022-07-29T10:02:36;2.17;;;1.65;;
14181;SDS011;7171;50.936;6.764;2022-07-29T10:05:05;2.10;;;1.70;;
14181;SDS011;7171;50.936;6.764;2022-07-29T10:07:44;1.67;;;1.58;;
14181;SDS011;7171;50.936;6.764;2022-07-29T10:10:17;2.08;;;1.80;;
14181;SDS011;7171;50.936;6.764;2022-07-29T10:12:49;1.52;;;1.40;;
14181;SDS011;7171;50.936;6.764;2022-07-29T10:15:18;1.50;;;1.40;;
14181;SDS011;7171;50.936;6.764;2022-07-29T10:17:46;1.98;;;1.60;;
14181;SDS011;7171;50.936;6.764;2022-07-29T10:20:14;2.88;;;1.75;;
14181;SDS011;7171;50.936;6.764;2022-07-29T10:22:43;1.70;;;1.60;;
14181;SDS011;7171;50.936;6.764;2022-07-29T10:25:12;2.35;;;1.75;;
14181;SDS011;7171;50.936;6.764;2022-07-29T10:27:40;2.72;;;2.13;;
14181;SDS011;7171;50.936;6.764;2022-07-29T10:30:07;3.70;;;1.80;;
14181;SDS011;7171;50.936;6.764;2022-07-29T10:32:38;3.15;;;1.80;;
14181;SDS011;7171;50.936;6.764;2022-07-29T10:35:23;3.15;;;2.30;;
14181;SDS011;7171;50.936;6.764;2022-07-29T10:38:10;2.00;;;1.80;;
14181;SDS011;7171;50.936;6.764;2022-07-29T10:41:11;2.92;;;1.90;;
14181;SDS011;7171;50.936;6.764;2022-07-29T10:43:55;4.30;;;1.58;;
14181;SDS011;7171;50.936;6.764;2022-07-29T10:46:25;1.83;;;1.67;;
14181;SDS011;7171;50.936;6.764;2022-07-29T10:49:08;4.93;;;1.95;;
14181;SDS011;7171;50.936;6.764;2022-07-29T10:57:20;1.65;;;1.50;;
14181;SDS011;7171;50.936;6.764;2022-07-29T11:02:56;2.95;;;2.13;;
14181;SDS011;7171;50.936;6.764;2022-07-29T11:05:25;1.75;;;1.65;;
14181;SDS011;7171;50.936;6.764;2022-07-29T11:10:52;2.10;;;1.58;;
14181;SDS011;7171;50.936;6.764;2022-07-29T11:13:47;2.47;;;1.85;;
14181;SDS011;7171;50.936;6.764;2022-07-29T11:16:16;3.00;;;2.10;;
14181;SDS011;7171;50.936;6.764;2022-07-29T11:21:45;2.17;;;1.65;;
14181;SDS011;7171;50.936;6.764;2022-07-29T11:24:14;2.33;;;1.60;;
14181;SDS011;7171;50.936;6.764;2022-07-29T11:26:43;1.60;;;1.38;;
14181;SDS011;7171;50.936;6.764;2022-07-29T11:29:16;1.85;;;1.60;;
14181;SDS011;7171;50.936;6.764;2022-07-29T11:31:46;1.50;;;1.35;;
14181;SDS011;7171;50.936;6.764;2022-07-29T11:34:17;3.30;;;1.50;;
14181;SDS011;7171;50.936;6.764;2022-07-29T11:40:10;1.60;;;1.48;;
14181;SDS011;7171;50.936;6.764;2022-07-29T11:42:46;2.53;;;1.40;;
14181;SDS011;7171;50.936;6.764;2022-07-29T11:48:17;1.40;;;1.30;;
14181;SDS011;7171;50.936;6.764;2022-07-29T11:50:44;2.45;;;1.60;;
14181;SDS011;7171;50.936;6.764;2022-07-29T11:53:11;1.77;;;1.45;;
14181;SDS011;7171;50.936;6.764;2022-07-29T11:55:40;2.13;;;1.38;;
14181;SDS011;7171;50.936;6.764;2022-07-29T11:58:08;3.25;;;1.63;;
14181;SDS011;7171;50.936;6.764;2022-07-29T12:00:36;2.05;;;1.48;;
14181;SDS011;7171;50.936;6.764;2022-07-29T12:03:04;3.80;;;1.45;;
14181;SDS011;7171;50.936;6.764;2022-07-29T12:05:33;2.25;;;1.50;;
14181;SDS011;7171;50.936;6.764;2022-07-29T12:08:08;1.42;;;1.33;;
14181;SDS011;7171;50.936;6.764;2022-07-29T12:10:37;1.30;;;1.20;;
14181;SDS011;7171;50.936;6.764;2022-07-29T12:13:04;1.50;;;1.27;;
14181;SDS011;7171;50.936;6.764;2022-07-29T12:15:33;1.13;;;1.02;;
14181;SDS011;7171;50.936;6.764;2022-07-29T12:18:09;1.67;;;1.23;;
14181;SDS011;7171;50.936;6.764;2022-07-29T12:20:36;1.83;;;1.48;;
14181;SDS011;7171;50.936;6.764;2022-07-29T12:23:04;2.15;;;1.33;;
14181;SDS011;7171;50.936;6.764;2022-07-29T12:25:33;2.10;;;1.55;;
14181;SDS011;7171;50.936;6.764;2022-07-29T12:28:02;1.85;;;1.48;;
14181;SDS011;7171;50.936;6.764;2022-07-29T12:30:35;1.52;;;1.40;;
14181;SDS011;7171;50.936;6.764;2022-07-29T12:33:10;1.73;;;1.10;;
14181;SDS011;7171;50.936;6.764;2022-07-29T12:35:45;2.60;;;1.42;;
14181;SDS011;7171;50.936;6.764;2022-07-29T12:38:14;2.20;;;1.40;;
14181;SDS011;7171;50.936;6.764;2022-07-29T12:40:41;2.55;;;1.40;;
14181;SDS011;7171;50.936;6.764;2022-07-29T12:43:09;1.50;;;1.40;;
14181;SDS011;7171;50.936;6.764;2022-07-29T12:45:39;1.50;;;1.38;;
14181;SDS011;7171;50.936;6.764;2022-07-29T12:48:09;1.70;;;1.48;;
14181;SDS011;7171;50.936;6.764;2022-07-29T12:50:36;4.32;;;1.67;;
14181;SDS011;7171;50.936;6.764;2022-07-29T12:53:17;1.63;;;1.52;;
14181;SDS011;7171;50.936;6.764;2022-07-29T12:55:45;2.80;;;1.42;;
14181;SDS011;7171;50.936;6.764;2022-07-29T12:58:25;1.40;;;1.30;;
14181;SDS011;7171;50.936;6.764;2022-07-29T13:01:02;3.33;;;1.33;;
14181;SDS011;7171;50.936;6.764;2022-07-29T13:03:41;2.35;;;1.38;;
14181;SDS011;7171;50.936;6.764;2022-07-29T13:09:01;3.70;;;1.80;;
14181;SDS011;7171;50.936;6.764;2022-07-29T13:11:33;5.03;;;2.10;;
14181;SDS011;7171;50.936;6.764;2022-07-29T13:14:00;1.75;;;1.60;;
14181;SDS011;7171;50.936;6.764;2022-07-29T13:16:29;1.65;;;1.33;;
14181;SDS011;7171;50.936;6.764;2022-07-29T13:19:09;1.92;;;1.60;;
14181;SDS011;7171;50.936;6.764;2022-07-29T13:21:37;3.63;;;2.08;;
14181;SDS011;7171;50.936;6.764;2022-07-29T13:24:05;2.92;;;2.28;;
14181;SDS011;7171;50.936;6.764;2022-07-29T13:26:33;2.45;;;1.80;;
14181;SDS011;7171;50.936;6.764;2022-07-29T13:29:00;2.17;;;1.98;;
14181;SDS011;7171;50.936;6.764;2022-07-29T13:31:28;2.90;;;1.92;;
14181;SDS011;7171;50.936;6.764;2022-07-29T13:33:55;2.08;;;1.80;;
14181;SDS011;7171;50.936;6.764;2022-07-29T13:36:22;2.72;;;1.58;;
14181;SDS011;7171;50.936;6.764;2022-07-29T13:38:49;2.75;;;2.20;;
14181;SDS011;7171;50.936;6.764;2022-07-29T13:41:15;3.30;;;2.00;;
14181;SDS011;7171;50.936;6.764;2022-07-29T13:43:42;2.05;;;1.63;;
14181;SDS011;7171;50.936;6.764;2022-07-29T13:46:10;2.22;;;1.70;;
14181;SDS011;7171;50.936;6.764;2022-07-29T13:48:38;3.97;;;2.08;;
14181;SDS011;7171;50.936;6.764;2022-07-29T13:51:05;3.63;;;1.90;;
14181;SDS011;7171;50.936;6.764;2022-07-29T13:53:32;2.80;;;1.80;;
14181;SDS011;7171;50.936;6.764;2022-07-29T13:55:58;1.92;;;1.50;;
14181;SDS011;7171;50.936;6.764;2022-07-29T13:58:25;2.13;;;1.80;;
14181;SDS011;7171;50.936;6.764;2022-07-29T14:00:52;1.70;;;1.52;;
14181;SDS011;7171;50.936;6.764;2022-07-29T14:03:19;2.67;;;2.10;;
14181;SDS011;7171;50.936;6.764;2022-07-29T14:05:47;2.10;;;1.70;;
14181;SDS011;7171;50.936;6.764;2022-07-29T14:08:14;2.17;;;1.77;;
14181;SDS011;7171;50.936;6.764;2022-07-29T14:10:40;2.10;;;1.67;;
14181;SDS011;7171;50.936;6.764;2022-07-29T14:13:07;3.75;;;2.00;;
14181;SDS011;7171;50.936;6.764;2022-07-29T14:15:34;2.10;;;1.90;;
14181;SDS011;7171;50.936;6.764;2022-07-29T14:18:01;2.45;;;1.63;;
14181;SDS011;7171;50.936;6.764;2022-07-29T14:20:28;4.05;;;2.17;;
14181;SDS011;7171;50.936;6.764;2022-07-29T14:22:56;3.75;;;1.60;;
14181;SDS011;7171;50.936;6.764;2022-07-29T14:25:23;3.42;;;1.95;;
14181;SDS011;7171;50.936;6.764;2022-07-29T14:27:50;3.10;;;2.50;;
14181;SDS011;7171;50.936;6.764;2022-07-29T14:30:18;4.50;;;2.53;;
14181;SDS011;7171;50.936;6.764;2022-07-29T14:32:45;3.85;;;2.72;;
14181;SDS011;7171;50.936;6.764;2022-07-29T14:35:11;3.60;;;2.65;;
14181;SDS011;7171;50.936;6.764;2022-07-29T14:37:38;5.35;;;2.05;;
14181;SDS011;7171;50.936;6.764;2022-07-29T14:40:07;4.03;;;3.03;;
14181;SDS011;7171;50.936;6.764;2022-07-29T14:42:35;4.93;;;2.80;;
14181;SDS011;7171;50.936;6.764;2022-07-29T14:45:02;4.75;;;2.80;;
14181;SDS011;7171;50.936;6.764;2022-07-29T14:47:30;3.17;;;1.92;;
14181;SDS011;7171;50.936;6.764;2022-07-29T14:49:57;3.50;;;2.05;;
14181;SDS011;7171;50.936;6.764;2022-07-29T14:52:24;2.95;;;2.50;;
14181;SDS011;7171;50.936;6.764;2022-07-29T14:54:51;2.63;;;1.77;;
14181;SDS011;7171;50.936;6.764;2022-07-29T14:57:20;1.40;;;1.20;;
14181;SDS011;7171;50.936;6.764;2022-07-29T14:59:47;1.58;;;1.35;;
14181;SDS011;7171;50.936;6.764;2022-07-29T15:02:14;2.08;;;1.42;;
14181;SDS011;7171;50.936;6.764;2022-07-29T15:04:41;1.90;;;1.45;;
14181;SDS011;7171;50.936;6.764;2022-07-29T15:07:09;1.83;;;1.38;;
14181;SDS011;7171;50.936;6.764;2022-07-29T15:09:36;1.70;;;1.52;;
14181;SDS011;7171;50.936;6.764;2022-07-29T15:12:03;1.60;;;1.50;;
14181;SDS011;7171;50.936;6.764;2022-07-29T15:14:32;1.58;;;1.48;;
14181;SDS011;7171;50.936;6.764;2022-07-29T15:16:59;2.25;;;1.70;;
14181;SDS011;7171;50.936;6.764;2022-07-29T15:19:25;1.50;;;1.40;;
14181;SDS011;7171;50.936;6.764;2022-07-29T15:21:52;1.83;;;1.25;;
14181;SDS011;7171;50.936;6.764;2022-07-29T15:24:19;1.40;;;1.30;;
14181;SDS011;7171;50.936;6.764;2022-07-29T15:26:46;1.70;;;1.40;;
14181;SDS011;7171;50.936;6.764;2022-07-29T15:29:14;1.67;;;1.58;;
14181;SDS011;7171;50.936;6.764;2022-07-29T15:31:42;1.50;;;1.40;;
14181;SDS011;7171;50.936;6.764;2022-07-29T15:34:09;1.35;;;1.20;;
14181;SDS011;7171;50.936;6.764;2022-07-29T15:36:36;1.50;;;1.38;;
14181;SDS011;7171;50.936;6.764;2022-07-29T15:39:03;1.42;;;1.33;;